Filippo Del Vecchio

Scout - Fiorentina
3 Dez 2028
Sonntag
Verarbeitung

Persönlichkeit

Anpassungsfähigkeit (18) Ehrgeiz (1) Kontroverse (12) Loyalität (14) Druck (1) Professionalität (16) Fairness (1) Temperament (15)

Profil

Trainerstil Demokratisch
Lizenz Kontinentale Pro
Entschlossenheit 14
Menschenführung 9
Motivation 14
Disziplin 10
Arbeitszufriedenheit
100%
Ermüdung
0%
Rolle Scout
Gehalt 71.0K p/W
Vertrag 14.03.2030

Leistung

Verhalten Gut
Trainingseffektivität
54%
Spielerentwicklung
55%
Verletzungsprävention
60%
Taktische Umsetzung
65%

Letzte Ereignisse

Spieler begutachtet jetzt
Nahm an einer Scouting-Besprechung teil jetzt
Empfahl ein Transferziel jetzt
Nahm an einer Scouting-Besprechung teil jetzt
Nahm an einer Scouting-Besprechung teil 7T her
Spieler begutachtet 7T her
Spieler begutachtet 7T her
Spieler begutachtet 7T her

Aktuell beobachtet

120
Spieler Verein Status Fähigkeit Vertrauen Beobachtet Zuletzt beobachtet Letzte Stimme
Chris Rigg West Ham United Aktiv 142 / 139 40% 5 29.11.2028 -
Louis Page Leicester City Aktiv 136 / 142 40% 9 29.11.2028 -
Matteo Palma Udinese Aktiv 134 / 146 40% 6 29.11.2028 -
Davinchi Getafe Aktiv 128 / 132 40% 4 29.11.2028 -
Ezra Mayers West Ham United Aktiv 130 / 136 40% 6 27.11.2028 -
Ronan Kpakio AC Milan Aktiv 128 / 135 40% 3 27.11.2028 -
Moses Sesay Southampton Aktiv 118 / 119 40% 2 27.11.2028 -
Daniel Banjaqui Benfica Aktiv 132 / 132 40% 6 26.11.2028 -
Noah Markmann Esbjerg Aktiv 124 / 131 40% 4 26.11.2028 -
Josh King Newcastle United Aktiv 148 / 150 40% 2 26.11.2028 -
Celías Ingenthron Platense Aktiv 118 / 131 40% 5 24.11.2028 -
Germán Barbas Racing Santander Aktiv 119 / 130 40% 3 24.11.2028 -
Diego León Rotherham United Aktiv 127 / 135 40% 5 24.11.2028 -
Miguel Figueiredo Benfica Aktiv 127 / 124 40% 9 21.11.2028 -
Axel Tape Bayer Leverkusen Aktiv 138 / 142 40% 4 21.11.2028 -
Rafael Mota Sporting CP Aktiv 120 / 129 40% 3 21.11.2028 -
Felipe Pujol Vélez Aktiv 111 / 123 40% 2 21.11.2028 -
Christos Mouzakitis Hull City Aktiv 143 / 153 40% 5 17.11.2028 -
Ale Gomes Zaragoza Aktiv 120 / 137 40% 2 17.11.2028 -
Harrison Armstrong Ipswich Town Aktiv 140 / 146 40% 2 17.11.2028 -
Luka Vušković Tottenham Aktiv 151 / 160 40% 5 16.11.2028 -
Andrija Bulatović Chamois Niortais Aktiv 134 / 143 40% 3 16.11.2028 -
José Neto Benfica Aktiv 126 / 139 40% 3 16.11.2028 -
Trey Nyoni Rotherham United Aktiv 145 / 151 40% 9 14.11.2028 -
Matías Magdaleno Estudiantes Aktiv 110 / 121 40% 6 14.11.2028 -
Salvador Blopá Wolverhampton Aktiv 128 / 123 40% 3 14.11.2028 -
Eman Košpo Zorya Aktiv 110 / 117 40% 3 12.11.2028 -
Aidan Borland Espanyol Aktiv 114 / 126 40% 1 12.11.2028 -
Vitaly Bondarev Ural Aktiv 110 / 126 40% 1 12.11.2028 -
Olivier Mambwa Young Boys Aktiv 115 / 131 40% 3 09.11.2028 -
Ayyoub Bouaddi Stoke City Aktiv 153 / 156 40% 4 09.11.2028 -
Callum Olusesi Tottenham Aktiv 122 / 134 40% 1 09.11.2028 -
Federico Matarán Giana Erminio Aktiv 108 / 124 40% 1 06.11.2028 -
Tyler Fletcher Rotherham United Aktiv 118 / 123 40% 7 05.11.2028 -
Malte Heyde Esbjerg Aktiv 114 / 132 40% 1 05.11.2028 -
Cheveyo Tsawa Club Brugge Aktiv 131 / 137 40% 7 04.11.2028 -
Sergio Martínez Real Madrid Aktiv 120 / 121 40% 1 04.11.2028 -
Tobías Ramírez River Plate Aktiv 131 / 126 40% 5 02.11.2028 -
Alexis Vossah Toulouse FC Aktiv 130 / 140 40% 1 02.11.2028 -
Alain Taho Pergolettese Aktiv 110 / 115 52% 1 / 1m 01.11.2028 -
Riccardo Stronati Pergolettese Aktiv 107 / 107 30% 1 / 1m 01.11.2028 -
Davide Bragantini Mantova Aktiv 137 / 137 42% 1 / 1m 01.11.2028 -
Tommaso Marras Mantova Aktiv 126 / 129 30% 1 / 1m 01.11.2028 -
Darryl Bakola Sassuolo Aktiv 118 / 131 40% 1 23.10.2028 -
Kiani Inge Groningen Aktiv 117 / 130 40% 5 21.10.2028 -
Aarón Martín Al-Qadisiyah Aktiv 120 / 111 40% 3 21.10.2028 -
Tobías Andrada River Plate Aktiv 118 / 121 40% 3 19.10.2028 -
Augusto Bando Ascoli Aktiv 115 / 127 40% 7 15.10.2028 -
Andrey Ivlev Nizhniy Novgorod Aktiv 116 / 123 40% 5 15.10.2028 -
Veljko Milosavljević Bournemouth Aktiv 150 / 145 40% 5 15.10.2028 -
Abubacarr Sedi Kinteh Al-Ahli Aktiv 139 / 128 40% 2 07.10.2028 -
Kyllian Antonio RC Lens Aktiv 121 / 119 40% 1 07.10.2028 -
Alejandro Almaraz NK Celje Aktiv 117 / 127 40% 2 06.10.2028 -
Riquelme Thompson-Jones Accrington Stanley Aktiv 113 / 129 40% 5 03.10.2028 -
Felipe Obradovich Ferro Carril Oeste Aktiv 109 / 121 40% 2 02.10.2028 -
Mirza Ćatović VfB Stuttgart Aktiv 128 / 125 40% 1 25.09.2028 -
Rhys Chadwick Blackpool Aktiv 109 / 119 40% 1 25.09.2028 -
Grady Makiobo Juventus Aktiv 115 / 129 40% 1 24.09.2028 -
Triston Rowe Derby County Aktiv 119 / 133 40% 1 23.09.2028 -
Honest Ahanor Atalanta Aktiv 141 / 146 40% 1 23.09.2028 -
Dmitry Pestryakov Real Sociedad Aktiv 121 / 129 40% 1 22.09.2028 -
Lamine Ballo Inter Aktiv 112 / 118 40% 1 22.09.2028 -
Wout Gielen Juventus Aktiv 110 / 116 40% 1 20.09.2028 -
Agustín Medina Lanús Aktiv 119 / 120 40% 1 18.09.2028 -
Matias Mancuso Inter Aktiv 112 / 115 40% 1 18.09.2028 -
Jayden Ngwashi Manchester United Aktiv 116 / 121 40% 1 17.09.2028 -
Jaydan Kamason Manchester United Aktiv 116 / 116 40% 1 16.09.2028 -
Francesco Verde Juventus Aktiv 112 / 126 40% 1 13.09.2028 -
Ayden Heaven Portsmouth Aktiv 151 / 159 40% 7 12.09.2028 -
Bade Aluko Leicester City Aktiv 126 / 128 40% 4 11.09.2028 -
Fabio Rispoli Como Aktiv 120 / 126 40% 4 11.09.2028 -
Jan Bürger Northampton Town Aktiv 123 / 125 40% 2 10.09.2028 -
Sam Alabi Newcastle United Aktiv 111 / 123 40% 1 09.09.2028 -
Andrés Cuenca Como Aktiv 118 / 126 40% 1 07.09.2028 -
Branimir Mlačić Udinese Aktiv 126 / 121 40% 1 07.09.2028 -
Matai Akinmboni Bournemouth Aktiv 114 / 113 40% 1 05.09.2028 -
Giovanni Leoni Lincoln City Aktiv 145 / 151 40% 6 04.09.2028 -
Matthias Braunöder Carrarese Bericht bereit 132 / 128 95% 1 03.07.2028 -
Devyne Rensch Virtus Entella Bericht bereit 147 / 151 95% 1 07.06.2028 -
Edoardo Goldaniga Catania Bericht bereit 126 / 125 95% 1 02.06.2028 -
Franculino Brighton Aktiv 147 / 147 40% 1 02.06.2028 -
Ibrahim Osman Norwich City Aktiv 143 / 140 40% 1 02.06.2028 -
Jorthy Mokio ADO Den Haag Aktiv 133 / 132 40% 6 29.05.2028 -
Jofre Torrents Ajax Aktiv 132 / 141 40% 2 29.05.2028 -
Nejc Viher NK Maribor Aktiv 118 / 132 40% 2 28.05.2028 -
David Blanc Le Havre AC Aktiv 109 / 112 40% 1 28.05.2028 -
Andrea Cogoni Cosenza Aktiv 109 / 111 40% 2 22.05.2028 -
Martim Cunha Porto Aktiv 108 / 113 40% 4 22.05.2028 -
Josh Nichols Oldham Athletic Aktiv 122 / 126 40% 3 21.05.2028 -
Bernardo Lima Porto Aktiv 109 / 124 40% 6 17.05.2028 -
Sascha Britschgi AC Milan Aktiv 122 / 128 40% 2 17.05.2028 -
Gustavo Albarracín Alavés Aktiv 117 / 120 40% 1 19.04.2028 -
Halam Loboa Sevilla Aktiv 125 / 120 40% 2 15.04.2028 -
Nicolas Sport Recife Aktiv 108 / 106 40% 1 15.04.2028 -
Vittorio Magni Cesena Aktiv 110 / 126 40% 1 11.04.2028 -
Thiago Silvero Vélez Aktiv 129 / 130 40% 2 04.04.2028 -
Sergiu Perciun Torino Aktiv 112 / 114 40% 1 03.04.2028 -
Jason Witsel PSV Aktiv 125 / 136 40% 2 01.04.2028 -
Noahkai Banks FC Augsburg Aktiv 140 / 138 40% 1 24.03.2028 -
Kacper Sezonienko Hellas Verona Aktiv 115 / 118 42% 1 / 1m 19.01.2028 -
Luca D'Andrea Sassuolo Aktiv 127 / 130 30% 1 / 1m 19.01.2028 -
Jaygo van Ommeren Utrecht Aktiv 102 / 121 40% 2 21.05.2027 -
Bence Dárdai VfL Wolfsburg Aktiv 131 / 127 40% 1 14.05.2027 -
Eliás Montiel Borussia Dortmund Aktiv 130 / 132 40% 1 14.05.2027 -
Samuele di Benedetto Twente Aktiv 112 / 119 40% 2 06.05.2027 -
Erick Dolly Black Aces Aktiv 111 / 112 40% 1 01.04.2027 -
Filippo Distefano Empoli Aktiv 118 / 120 40% 1 01.04.2027 -
Sindre Walle Egeli Udinese Aktiv 131 / 125 40% 2 28.03.2027 -
David Romero Parma Aktiv 126 / 132 40% 1 28.03.2027 -
Manfred Ugalde Spartak Moscow Aktiv 128 / 138 40% 1 25.03.2027 -
Jeff Ekhator Juventus Aktiv 128 / 140 40% 1 21.03.2027 Mehr Infos nötig
Maksim Samorodov Akhmat Grozny Aktiv 124 / 121 40% 1 18.03.2027 -
Giorgi Kvernadze Frosinone Aktiv 123 / 132 40% 1 18.03.2027 -
Ádin Molnár MTK Budapest Aktiv 108 / 126 40% 1 08.03.2027 -
José Martínes CSKA 1948 Aktiv 109 / 102 40% 1 07.03.2027 -
Massimo Zilli Spezia Aktiv 108 / 105 40% 1 04.03.2027 -
Luca Pandolfi Avellino Aktiv 115 / 115 30% 1 / 1m 20.01.2027 -
Bogdan Kostić Partizan Aktiv 112 / 117 30% 1 / 1m 04.11.2026 -
Federico Tonin AlbinoLeffe Aktiv 79 / 84 30% 1 / 1m 04.11.2026 -
Fali Candé Sassuolo Aktiv 124 / 112 83% 1 17.08.2026 Befürworten